Time;durP1;ratioP1;P1;durP2;ratioP2;P2;SDS_P1;SDS_P2;PMS_P1;PMS_P2;Temp;Humidity;BMP_temperature;BMP_pressure;BME280_temperature;BME280_humidity;BME280_pressure;Samples;Min_cycle;Max_cycle;Signal;HPM_P1;HPM_P2
2021/09/20 00:01:34;;;;;;;14.85;9.13;;;;;;;12.12;100.00;101672.00;5201092;28;20037;-73
2021/09/20 00:04:05;;;;;;;14.35;8.60;;;;;;;12.14;100.00;101669.97;5187940;28;20025;-72
2021/09/20 00:06:35;;;;;;;18.02;9.20;;;;;;;12.16;100.00;101671.53;5201117;28;20036;-72
2021/09/20 00:09:06;;;;;;;14.48;8.75;;;;;;;12.15;100.00;101666.31;5187564;28;20457;-73
2021/09/20 00:11:36;;;;;;;15.43;9.13;;;;;;;12.12;100.00;101664.75;5200324;28;20045;-72
2021/09/20 00:14:07;;;;;;;21.75;10.73;;;;;;;12.12;100.00;101664.75;5201020;28;20387;-72
2021/09/20 00:16:37;;;;;;;16.60;9.07;;;;;;;12.10;100.00;101664.09;5187110;28;20026;-72
2021/09/20 00:19:08;;;;;;;15.85;8.73;;;;;;;12.05;100.00;101669.09;5199739;28;20483;-72
2021/09/20 00:21:38;;;;;;;20.75;10.38;;;;;;;11.99;100.00;101669.69;5199862;28;20067;-73
2021/09/20 00:24:09;;;;;;;20.40;11.13;;;;;;;11.94;100.00;101661.25;5188003;28;20033;-72
2021/09/20 00:26:39;;;;;;;22.90;12.00;;;;;;;11.91;100.00;101662.41;5187378;28;20061;-72
2021/09/20 00:29:10;;;;;;;23.38;10.32;;;;;;;11.89;100.00;101668.94;5200638;28;20557;-73
2021/09/20 00:31:41;;;;;;;19.20;10.43;;;;;;;11.87;100.00;101668.25;5183031;28;20112;-72
2021/09/20 00:34:11;;;;;;;21.27;11.32;;;;;;;11.87;100.00;101673.63;5191931;28;20505;-72
2021/09/20 00:36:42;;;;;;;22.35;11.63;;;;;;;11.84;100.00;101669.41;5186606;28;20037;-72
2021/09/20 00:39:13;;;;;;;26.77;13.02;;;;;;;11.84;100.00;101676.63;5187697;28;20072;-73
2021/09/20 00:41:43;;;;;;;24.70;13.38;;;;;;;11.81;100.00;101677.75;5194309;28;20037;-72
2021/09/20 00:44:14;;;;;;;29.17;14.40;;;;;;;11.82;100.00;101679.47;5187094;28;20148;-71
2021/09/20 00:46:44;;;;;;;27.83;13.18;;;;;;;11.82;100.00;101674.09;5191899;28;20037;-72
2021/09/20 00:49:15;;;;;;;30.10;14.68;;;;;;;11.80;100.00;101667.16;5194996;28;20040;-72
2021/09/20 00:51:45;;;;;;;29.23;14.65;;;;;;;11.79;100.00;101673.53;5190734;28;20116;-72
2021/09/20 00:54:16;;;;;;;25.50;12.70;;;;;;;11.77;100.00;101667.47;5193326;28;20120;-72
2021/09/20 00:56:47;;;;;;;31.42;14.85;;;;;;;11.75;100.00;101672.16;5189934;28;20040;-72
2021/09/20 00:59:18;;;;;;;33.42;16.58;;;;;;;11.75;100.00;101672.16;5195439;28;20022;-72
2021/09/20 01:01:49;;;;;;;35.40;17.45;;;;;;;11.76;100.00;101674.69;5191539;28;20037;-72
2021/09/20 01:04:20;;;;;;;35.38;17.83;;;;;;;11.78;100.00;101671.84;5194456;28;20365;-72
2021/09/20 01:06:50;;;;;;;36.65;17.83;;;;;;;11.80;100.00;101676.06;5192598;28;20065;-72
2021/09/20 01:09:21;;;;;;;37.03;18.25;;;;;;;11.82;100.00;101667.88;5186135;28;20521;-73
2021/09/20 01:11:53;;;;;;;31.48;16.17;;;;;;;11.81;100.00;101669.69;5198079;28;20056;-73
2021/09/20 01:14:24;;;;;;;27.30;16.15;;;;;;;11.81;100.00;101672.38;5188296;28;20025;-73
2021/09/20 01:16:54;;;;;;;29.40;14.27;;;;;;;11.82;100.00;101675.94;5199938;28;20481;-73
2021/09/20 01:19:25;;;;;;;31.42;16.13;;;;;;;11.83;100.00;101670.41;5199839;28;20037;-73
2021/09/20 01:22:01;;;;;;;31.77;15.27;;;;;;;11.88;100.00;101673.47;5195943;28;20121;-72
2021/09/20 01:24:31;;;;;;;28.55;15.07;;;;;;;11.92;100.00;101666.78;5179178;28;20026;-73
2021/09/20 01:27:03;;;;;;;28.40;14.80;;;;;;;11.97;100.00;101671.69;5192412;28;20387;-74
2021/09/20 01:29:34;;;;;;;27.95;14.25;;;;;;;12.02;100.00;101668.56;5192571;28;20026;-73
2021/09/20 01:32:05;;;;;;;23.88;12.88;;;;;;;12.05;100.00;101666.41;5186839;28;20036;-72
2021/09/20 01:34:36;;;;;;;27.50;12.93;;;;;;;12.09;100.00;101664.22;5186561;28;20430;-73
2021/09/20 01:37:07;;;;;;;25.83;12.65;;;;;;;12.11;100.00;101667.63;5189689;28;20041;-74
2021/09/20 01:39:40;;;;;;;26.38;13.50;;;;;;;12.12;100.00;101661.25;5195273;28;20056;-73
2021/09/20 01:42:11;;;;;;;23.77;13.02;;;;;;;12.14;100.00;101667.28;5188747;28;20375;-73
2021/09/20 01:44:41;;;;;;;22.92;13.05;;;;;;;12.18;100.00;101671.38;5197627;28;20025;-72
2021/09/20 01:47:13;;;;;;;23.42;12.13;;;;;;;12.21;100.00;101667.53;5187306;28;20037;-72
2021/09/20 01:49:44;;;;;;;25.42;12.32;;;;;;;12.24;100.00;101667.19;5178634;28;20038;-72
2021/09/20 01:52:14;;;;;;;22.92;12.70;;;;;;;12.27;100.00;101667.75;5192311;28;20262;-72
2021/09/20 01:54:45;;;;;;;25.77;12.32;;;;;;;12.29;100.00;101667.56;5186592;28;20057;-73
2021/09/20 01:57:17;;;;;;;20.90;11.80;;;;;;;12.29;100.00;101663.03;5184397;28;20034;-72
2021/09/20 01:59:47;;;;;;;24.52;12.18;;;;;;;12.30;100.00;101658.50;5178629;28;20104;-72
2021/09/20 02:02:18;;;;;;;18.00;11.20;;;;;;;12.31;100.00;101661.03;5181604;28;20452;-73
2021/09/20 02:04:49;;;;;;;19.92;11.05;;;;;;;12.33;100.00;101669.78;5189121;28;20049;-72
2021/09/20 02:07:41;;;;;;;24.27;11.93;;;;;;;12.34;100.00;101667.94;5191076;28;20036;-72
2021/09/20 02:10:16;;;;;;;23.10;11.93;;;;;;;12.33;100.00;101672.47;5191663;28;20036;-72
2021/09/20 02:12:50;;;;;;;18.65;10.80;;;;;;;12.35;100.00;101672.31;5187775;28;20030;-72
2021/09/20 02:15:21;;;;;;;21.27;10.38;;;;;;;12.37;100.00;101678.41;5186156;28;20037;-73
2021/09/20 02:17:51;;;;;;;25.30;12.85;;;;;;;12.38;100.00;101672.84;5188881;28;20507;-72
2021/09/20 02:20:22;;;;;;;22.55;10.20;;;;;;;12.38;100.00;101664.78;5180735;28;20057;-73
2021/09/20 02:22:52;;;;;;;19.65;10.60;;;;;;;12.39;100.00;101668.31;5182628;28;20112;-72
2021/09/20 02:25:23;;;;;;;20.92;11.02;;;;;;;12.36;100.00;101672.19;5201994;28;20033;-72
2021/09/20 02:27:54;;;;;;;19.83;10.90;;;;;;;12.37;100.00;101670.31;5203366;28;20083;-72
2021/09/20 02:30:24;;;;;;;18.25;9.95;;;;;;;12.36;100.00;101671.34;5189992;28;20029;-73
2021/09/20 02:32:55;;;;;;;19.42;10.60;;;;;;;12.34;100.00;101673.31;5189718;28;20029;-73
2021/09/20 02:35:25;;;;;;;16.58;10.30;;;;;;;12.36;100.00;101671.34;5194409;28;20036;-73
2021/09/20 02:37:56;;;;;;;17.60;9.70;;;;;;;12.36;100.00;101680.25;5184987;28;20104;-73
2021/09/20 02:40:26;;;;;;;17.40;9.70;;;;;;;12.35;100.00;101675.00;5193345;28;20052;-72
2021/09/20 02:42:57;;;;;;;19.13;9.98;;;;;;;12.33;100.00;101677.03;5189467;28;20032;-72
2021/09/20 02:45:28;;;;;;;19.00;10.20;;;;;;;12.32;100.00;101683.41;5190800;28;20043;-73
2021/09/20 02:47:58;;;;;;;23.05;10.63;;;;;;;12.32;100.00;101678.03;5185663;28;20694;-73
2021/09/20 02:50:29;;;;;;;17.42;10.45;;;;;;;12.32;100.00;101680.72;5202459;28;20029;-73
2021/09/20 02:52:59;;;;;;;17.52;9.48;;;;;;;12.30;100.00;101680.00;5189423;28;20498;-73
2021/09/20 02:55:30;;;;;;;20.58;10.35;;;;;;;12.29;100.00;101681.03;5189355;28;20029;-72
2021/09/20 02:58:00;;;;;;;16.60;9.63;;;;;;;12.27;100.00;101680.34;5182546;28;20519;-74
2021/09/20 03:00:31;;;;;;;19.60;10.02;;;;;;;12.28;100.00;101682.03;5181076;28;20034;-73
2021/09/20 03:03:02;;;;;;;18.17;10.13;;;;;;;12.28;100.00;101692.78;5182164;28;20106;-73
2021/09/20 03:05:33;;;;;;;18.35;9.23;;;;;;;12.24;100.00;101683.34;5181614;28;20030;-73
2021/09/20 03:08:05;;;;;;;18.90;10.15;;;;;;;12.25;100.00;101698.47;5181929;28;20278;-73
2021/09/20 03:10:35;;;;;;;19.08;10.18;;;;;;;12.21;100.00;101691.75;5181544;28;20399;-73
2021/09/20 03:13:06;;;;;;;19.17;10.38;;;;;;;12.16;100.00;101695.75;5182388;28;20033;-73
2021/09/20 03:15:36;;;;;;;18.73;9.85;;;;;;;12.12;100.00;101697.03;5181354;28;20048;-72
2021/09/20 03:18:07;;;;;;;18.77;10.27;;;;;;;12.09;100.00;101697.34;5180666;28;20018;-72
2021/09/20 03:20:37;;;;;;;23.30;10.50;;;;;;;12.05;100.00;101701.38;5181376;28;20076;-73
2021/09/20 03:23:08;;;;;;;21.85;10.25;;;;;;;12.00;100.00;101702.81;5182123;28;20063;-73
2021/09/20 03:25:39;;;;;;;18.88;10.48;;;;;;;11.92;100.00;101701.75;5181961;28;20033;-72
2021/09/20 03:28:09;;;;;;;22.30;9.95;;;;;;;11.84;100.00;101703.50;5184216;28;20480;-73
2021/09/20 03:30:40;;;;;;;22.27;10.25;;;;;;;11.77;100.00;101708.63;5202487;28;20029;-72
2021/09/20 03:33:10;;;;;;;18.67;9.73;;;;;;;11.70;100.00;101712.94;5189569;28;20028;-71
2021/09/20 03:35:41;;;;;;;22.55;11.52;;;;;;;11.62;100.00;101713.69;5191634;28;20438;-71
2021/09/20 03:38:11;;;;;;;20.67;10.25;;;;;;;11.56;100.00;101721.53;5186423;28;20160;-71
2021/09/20 03:40:42;;;;;;;18.38;10.30;;;;;;;11.49;100.00;101723.94;5191900;28;20022;-72
2021/09/20 03:43:12;;;;;;;23.58;11.25;;;;;;;11.45;100.00;101725.25;5188412;28;20517;-73
2021/09/20 03:45:43;;;;;;;22.83;10.45;;;;;;;11.41;100.00;101721.19;5201374;28;20457;-72
2021/09/20 03:48:14;;;;;;;19.75;10.73;;;;;;;11.38;100.00;101729.53;5180833;28;20026;-72
2021/09/20 03:50:44;;;;;;;21.35;10.73;;;;;;;11.34;100.00;101723.59;5195252;28;20079;-72
2021/09/20 03:53:15;;;;;;;23.25;11.82;;;;;;;11.30;100.00;101724.94;5193207;28;20018;-71
2021/09/20 03:55:46;;;;;;;21.80;10.73;;;;;;;11.27;100.00;101732.44;5194005;28;20116;-71
2021/09/20 03:58:16;;;;;;;20.83;11.10;;;;;;;11.25;100.00;101737.13;5190480;28;20109;-71
2021/09/20 04:00:47;;;;;;;20.98;10.70;;;;;;;11.26;100.00;101734.28;5183884;28;20625;-72
2021/09/20 04:03:17;;;;;;;18.10;11.00;;;;;;;11.30;100.00;101737.50;5191468;28;20438;-72
2021/09/20 04:05:48;;;;;;;25.38;11.32;;;;;;;11.36;100.00;101751.19;5183209;28;20026;-72
2021/09/20 04:08:19;;;;;;;21.40;11.00;;;;;;;11.43;100.00;101754.09;5180872;28;20182;-73
2021/09/20 04:10:49;;;;;;;18.65;11.40;;;;;;;11.48;100.00;101751.81;5193596;28;20032;-72
2021/09/20 04:13:20;;;;;;;25.02;11.45;;;;;;;11.53;100.00;101759.44;5193679;28;20053;-73
2021/09/20 04:15:53;;;;;;;23.73;11.48;;;;;;;11.53;100.00;101749.53;5200781;28;20253;-72
2021/09/20 04:18:27;;;;;;;17.58;9.57;;;;;;;11.53;100.00;101757.59;5186087;28;20416;-73
2021/09/20 04:20:57;;;;;;;21.92;10.60;;;;;;;11.49;100.00;101750.81;5189583;28;20166;-72
2021/09/20 04:23:28;;;;;;;22.13;10.35;;;;;;;11.45;100.00;101752.13;5197255;28;20479;-72
2021/09/20 04:25:58;;;;;;;18.92;10.20;;;;;;;11.40;100.00;101746.38;5180309;28;20471;-73
2021/09/20 04:28:29;;;;;;;23.88;11.30;;;;;;;11.36;100.00;101753.88;5198128;28;20029;-72
2021/09/20 04:30:59;;;;;;;24.65;11.50;;;;;;;11.31;100.00;101758.00;5200321;28;20148;-72
2021/09/20 04:33:30;;;;;;;21.90;10.93;;;;;;;11.24;100.00;101754.19;5187104;28;20034;-72
2021/09/20 04:36:00;;;;;;;22.55;11.32;;;;;;;11.17;100.00;101756.66;5187286;28;20026;-72
2021/09/20 04:38:31;;;;;;;25.92;11.52;;;;;;;11.12;100.00;101757.09;5187170;28;20027;-72
2021/09/20 04:41:01;;;;;;;20.77;11.05;;;;;;;11.08;100.00;101757.53;5198969;28;20411;-72
2021/09/20 04:43:32;;;;;;;21.90;11.65;;;;;;;11.03;100.00;101768.69;5188387;28;20056;-73
2021/09/20 04:46:02;;;;;;;20.85;10.63;;;;;;;11.03;100.00;101773.22;5186941;28;20030;-72
2021/09/20 04:48:33;;;;;;;24.45;11.98;;;;;;;11.03;100.00;101784.81;5190814;28;20537;-72
2021/09/20 04:51:03;;;;;;;26.05;12.07;;;;;;;11.01;100.00;101783.28;5195502;28;20017;-71
2021/09/20 04:53:34;;;;;;;24.15;11.25;;;;;;;11.00;100.00;101782.44;5200460;28;20032;-71
2021/09/20 04:56:04;;;;;;;30.33;12.68;;;;;;;11.01;100.00;101780.59;5182187;28;20106;-72
2021/09/20 04:58:35;;;;;;;27.02;11.50;;;;;;;11.04;100.00;101791.88;5180124;28;20349;-71
2021/09/20 05:01:05;;;;;;;26.33;10.90;;;;;;;11.06;100.00;101787.22;5192114;28;20026;-71
2021/09/20 05:03:36;;;;;;;26.30;12.52;;;;;;;11.09;100.00;101789.63;5191676;28;20398;-72
2021/09/20 05:06:06;;;;;;;29.95;12.07;;;;;;;11.14;100.00;101791.84;5200352;28;20029;-71
2021/09/20 05:08:37;;;;;;;23.23;10.68;;;;;;;11.15;100.00;101794.41;5186672;28;20018;-72
2021/09/20 05:11:07;;;;;;;29.08;12.10;;;;;;;11.13;100.00;101793.69;5199445;28;20084;-72
2021/09/20 05:13:38;;;;;;;26.42;12.35;;;;;;;11.10;100.00;101791.31;5184018;28;20034;-72
2021/09/20 05:16:08;;;;;;;24.02;11.75;;;;;;;11.08;100.00;101797.81;5179265;28;20036;-71
2021/09/20 05:18:39;;;;;;;23.67;11.77;;;;;;;11.04;100.00;101797.25;5179570;28;20021;-71
2021/09/20 05:21:09;;;;;;;26.17;11.90;;;;;;;11.05;100.00;101798.13;5189816;28;20124;-71
2021/09/20 05:23:40;;;;;;;28.40;12.93;;;;;;;11.07;100.00;101796.13;5181869;28;20113;-71
2021/09/20 05:26:11;;;;;;;27.90;11.85;;;;;;;11.08;100.00;101797.81;5178918;28;20077;-72
2021/09/20 05:28:41;;;;;;;22.58;11.85;;;;;;;11.08;100.00;101795.13;5198300;28;20116;-72
2021/09/20 05:31:12;;;;;;;22.25;12.05;;;;;;;11.10;100.00;101790.47;5199095;28;20108;-71
2021/09/20 05:33:43;;;;;;;28.15;12.95;;;;;;;11.07;100.00;101796.97;5192026;28;20080;-71
2021/09/20 05:36:13;;;;;;;22.80;12.07;;;;;;;11.05;100.00;101801.66;5192009;28;20040;-71
2021/09/20 05:38:44;;;;;;;26.17;12.55;;;;;;;11.03;100.00;101803.59;5187533;28;20040;-71
2021/09/20 05:41:14;;;;;;;27.42;12.38;;;;;;;10.98;100.00;101795.16;5199082;28;20033;-70
2021/09/20 05:43:45;;;;;;;29.23;13.07;;;;;;;10.96;100.00;101794.47;5189496;28;20072;-71
2021/09/20 05:46:15;;;;;;;25.70;12.60;;;;;;;10.94;100.00;101801.78;5181121;28;20491;-71
2021/09/20 05:48:46;;;;;;;26.48;12.05;;;;;;;10.93;100.00;101805.47;5188640;28;20379;-71
2021/09/20 05:51:16;;;;;;;22.20;12.27;;;;;;;10.92;100.00;101805.63;5178146;28;20484;-70
2021/09/20 05:53:47;;;;;;;26.65;13.18;;;;;;;10.93;100.00;101808.16;5191356;28;20101;-70
2021/09/20 05:56:17;;;;;;;27.33;13.27;;;;;;;10.94;100.00;101815.22;5191994;28;20511;-71
2021/09/20 05:58:48;;;;;;;28.90;13.80;;;;;;;10.95;100.00;101808.88;5192068;28;20028;-70
2021/09/20 06:01:18;;;;;;;29.15;13.73;;;;;;;10.97;100.00;101823.00;5186670;28;20029;-71
2021/09/20 06:03:49;;;;;;;28.23;12.55;;;;;;;11.00;100.00;101828.09;5191392;28;20502;-71
2021/09/20 06:06:19;;;;;;;24.50;13.15;;;;;;;11.04;100.00;101823.25;5196806;28;20025;-71
2021/09/20 06:08:50;;;;;;;24.73;12.27;;;;;;;11.10;100.00;101822.69;5181916;28;20026;-71
2021/09/20 06:11:20;;;;;;;31.80;13.30;;;;;;;11.17;100.00;101825.63;5188117;28;20037;-71
2021/09/20 06:13:51;;;;;;;27.80;12.50;;;;;;;11.23;100.00;101823.19;5198325;28;20025;-71
2021/09/20 06:16:22;;;;;;;33.05;13.18;;;;;;;11.31;100.00;101827.84;5186582;28;20042;-71
2021/09/20 06:18:52;;;;;;;34.30;13.10;;;;;;;11.38;100.00;101831.63;5196460;28;20053;-71
2021/09/20 06:21:23;;;;;;;27.40;11.73;;;;;;;11.43;100.00;101842.78;5185098;28;20034;-71
2021/09/20 06:23:53;;;;;;;26.85;12.63;;;;;;;11.51;100.00;101837.53;5195423;28;20032;-71
2021/09/20 06:26:24;;;;;;;29.17;12.98;;;;;;;11.66;100.00;101837.88;5197809;28;20029;-71
2021/09/20 06:28:54;;;;;;;21.88;11.80;;;;;;;11.85;100.00;101839.66;5197518;28;20076;-71
2021/09/20 06:31:25;;;;;;;29.60;12.80;;;;;;;12.08;100.00;101843.59;5184403;28;20576;-70
2021/09/20 06:33:55;;;;;;;26.58;13.10;;;;;;;12.20;100.00;101846.94;5197558;28;20386;-71
2021/09/20 06:36:26;;;;;;;70.43;46.35;;;;;;;12.32;100.00;101842.16;5194103;28;20022;-71
2021/09/20 06:38:57;;;;;;;45.63;31.95;;;;;;;12.45;100.00;101842.63;5177871;28;20021;-71
2021/09/20 06:41:27;;;;;;;24.80;12.90;;;;;;;12.57;100.00;101844.06;5194984;28;20514;-71
2021/09/20 06:43:58;;;;;;;27.67;12.70;;;;;;;12.70;100.00;101846.34;5197479;28;20432;-71
2021/09/20 06:46:30;;;;;;;26.55;12.05;;;;;;;12.92;100.00;101850.41;5184040;28;20090;-71
2021/09/20 06:49:02;;;;;;;27.48;14.00;;;;;;;13.06;100.00;101863.31;5197771;28;20375;-71
2021/09/20 06:51:33;;;;;;;22.98;12.52;;;;;;;13.21;100.00;101855.50;5197772;28;20036;-71
2021/09/20 06:54:03;;;;;;;22.02;11.65;;;;;;;13.18;100.00;101859.34;5196291;28;20070;-71
2021/09/20 06:56:35;;;;;;;23.38;11.70;;;;;;;13.24;100.00;101867.81;5186420;28;20467;-71
2021/09/20 06:59:06;;;;;;;23.50;12.10;;;;;;;13.36;100.00;101869.25;5196381;28;20112;-71
2021/09/20 07:01:36;;;;;;;23.17;12.27;;;;;;;13.38;100.00;101867.25;5187617;28;20029;-71
2021/09/20 07:04:07;;;;;;;24.13;12.55;;;;;;;13.35;100.00;101870.25;5188644;28;20030;-71
2021/09/20 07:06:38;;;;;;;22.80;12.48;;;;;;;13.38;100.00;101869.94;5189709;28;20030;-71
2021/09/20 07:09:08;;;;;;;24.58;12.75;;;;;;;13.32;100.00;101873.28;5201440;28;20402;-71
2021/09/20 07:11:39;;;;;;;23.98;13.07;;;;;;;13.38;100.00;101875.31;5201890;28;20112;-71
2021/09/20 07:14:10;;;;;;;27.73;13.35;;;;;;;13.45;100.00;101888.03;5187768;28;20029;-70
2021/09/20 07:16:41;;;;;;;32.45;13.95;;;;;;;13.41;100.00;101892.03;5200823;28;20040;-71
2021/09/20 07:19:11;;;;;;;23.52;12.15;;;;;;;13.32;100.00;101887.59;5201161;28;20025;-71
2021/09/20 07:21:43;;;;;;;23.38;11.98;;;;;;;13.29;100.00;101889.75;5199139;28;20575;-71
2021/09/20 07:24:14;;;;;;;27.13;13.10;;;;;;;13.14;100.00;101898.38;5190023;28;20533;-72
2021/09/20 07:26:44;;;;;;;27.90;12.95;;;;;;;13.12;100.00;101899.53;5187752;28;20029;-71
2021/09/20 07:29:15;;;;;;;22.15;13.52;;;;;;;13.13;100.00;101902.06;5200145;28;20141;-72
2021/09/20 07:31:45;;;;;;;26.05;13.63;;;;;;;13.12;100.00;101905.78;5195846;28;20026;-71
2021/09/20 07:34:16;;;;;;;28.70;13.10;;;;;;;13.11;100.00;101904.09;5180382;28;20104;-71
2021/09/20 07:36:47;;;;;;;31.52;14.02;;;;;;;13.04;100.00;101908.41;5193676;28;20121;-71
2021/09/20 07:39:17;;;;;;;28.42;13.30;;;;;;;13.04;100.00;101911.09;5193209;28;20043;-71
2021/09/20 07:41:48;;;;;;;26.75;13.45;;;;;;;13.02;100.00;101910.41;5185940;28;20641;-71
2021/09/20 07:44:18;;;;;;;26.45;13.55;;;;;;;13.04;100.00;101927.25;5185402;28;20034;-71
2021/09/20 07:46:49;;;;;;;26.25;12.63;;;;;;;13.14;100.00;101922.63;5188758;28;20032;-71
2021/09/20 07:49:20;;;;;;;28.77;13.90;;;;;;;13.21;100.00;101923.72;5200082;28;20044;-71
2021/09/20 07:51:50;;;;;;;32.67;15.10;;;;;;;13.23;100.00;101917.34;5190962;28;20017;-71
2021/09/20 07:54:21;;;;;;;29.85;14.00;;;;;;;13.19;100.00;101927.53;5192672;28;20117;-71
2021/09/20 07:56:51;;;;;;;32.08;14.63;;;;;;;13.21;100.00;101929.13;5191388;28;20084;-71
2021/09/20 07:59:21;;;;;;;32.15;14.82;;;;;;;13.28;100.00;101923.94;5195354;28;20033;-70
2021/09/20 08:01:52;;;;;;;33.10;14.93;;;;;;;13.39;100.00;101934.44;5180271;28;20022;-71
2021/09/20 08:04:23;;;;;;;32.17;14.13;;;;;;;13.46;100.00;101937.38;5199535;28;20021;-71
2021/09/20 08:06:53;;;;;;;25.23;14.55;;;;;;;13.50;100.00;101933.34;5186479;28;20088;-71
2021/09/20 08:09:24;;;;;;;26.95;14.32;;;;;;;13.59;100.00;101939.63;5186758;28;20018;-71
2021/09/20 08:11:54;;;;;;;31.20;14.60;;;;;;;13.74;100.00;101933.47;5185604;28;20033;-71
2021/09/20 08:14:25;;;;;;;28.65;14.90;;;;;;;13.93;100.00;101940.50;5187671;28;20025;-71
2021/09/20 08:16:55;;;;;;;28.95;13.88;;;;;;;14.17;100.00;101938.91;5197039;28;20022;-70
2021/09/20 08:19:26;;;;;;;26.08;14.75;;;;;;;14.56;100.00;101941.06;5188724;28;20033;-70
2021/09/20 08:21:57;;;;;;;28.30;14.68;;;;;;;14.98;100.00;101943.66;5196072;28;20084;-70
2021/09/20 08:24:27;;;;;;;31.45;16.10;;;;;;;15.19;100.00;101945.84;5190055;28;20017;-70
2021/09/20 08:26:58;;;;;;;35.55;14.18;;;;;;;15.18;100.00;101950.41;5181621;28;20394;-70
2021/09/20 08:29:28;;;;;;;24.38;13.88;;;;;;;15.16;100.00;101949.75;5191320;28;21219;-70
2021/09/20 08:31:59;;;;;;;24.85;12.93;;;;;;;15.09;100.00;101951.41;5193379;28;20116;-70
2021/09/20 08:34:29;;;;;;;27.98;14.02;;;;;;;15.13;100.00;101958.19;5193029;28;20445;-70
2021/09/20 08:37:00;;;;;;;34.78;15.27;;;;;;;15.34;100.00;101965.75;5199945;28;20391;-71
2021/09/20 08:39:31;;;;;;;35.05;15.65;;;;;;;15.50;100.00;101970.31;5195951;28;20057;-70
2021/09/20 08:42:02;;;;;;;31.23;12.98;;;;;;;15.61;100.00;101969.94;5182613;28;20041;-71
2021/09/20 08:44:33;;;;;;;23.08;13.70;;;;;;;15.63;100.00;101975.19;5178824;28;20040;-73
2021/09/20 08:47:04;;;;;;;27.58;13.70;;;;;;;15.65;100.00;101965.91;5189818;28;20116;-70
2021/09/20 08:49:34;;;;;;;27.27;13.48;;;;;;;15.46;100.00;101971.66;5199085;28;20100;-70
2021/09/20 08:52:05;;;;;;;21.17;13.23;;;;;;;15.23;100.00;101964.25;5188254;28;20442;-70
2021/09/20 08:54:36;;;;;;;28.15;13.57;;;;;;;15.09;100.00;101967.63;5197991;28;20029;-71
2021/09/20 08:57:09;;;;;;;25.30;13.32;;;;;;;14.90;100.00;101976.91;5199012;28;20036;-70
2021/09/20 08:59:39;;;;;;;22.90;13.32;;;;;;;14.84;100.00;101972.16;5178662;28;20018;-70
2021/09/20 09:02:15;;;;;;;23.10;14.18;;;;;;;15.06;100.00;101983.34;5180137;28;20041;-70
2021/09/20 09:04:46;;;;;;;27.80;13.07;;;;;;;15.19;100.00;101980.97;5198638;28;20031;-70
2021/09/20 09:07:19;;;;;;;24.15;13.15;;;;;;;15.29;100.00;101984.34;5198862;28;20683;-70
2021/09/20 09:09:51;;;;;;;28.25;12.75;;;;;;;15.60;100.00;101987.19;5198776;28;20022;-70
2021/09/20 09:12:29;;;;;;;24.25;12.25;;;;;;;16.30;100.00;101984.63;5185949;28;20029;-71
2021/09/20 09:15:02;;;;;;;32.00;12.98;;;;;;;16.92;100.00;101985.66;5198553;28;20083;-71
2021/09/20 09:17:36;;;;;;;22.42;12.57;;;;;;;17.69;100.00;101991.78;5198526;28;20040;-70
2021/09/20 09:20:11;;;;;;;22.35;11.82;;;;;;;18.18;100.00;101993.16;5198467;28;20467;-71
2021/09/20 09:22:44;;;;;;;16.90;10.88;;;;;;;18.05;100.00;101986.47;5188977;28;20029;-71
2021/09/20 09:25:23;;;;;;;21.63;11.35;;;;;;;17.66;100.00;101986.72;5191153;28;20096;-71
2021/09/20 09:27:56;;;;;;;22.95;11.73;;;;;;;17.57;100.00;101995.97;5178049;28;20029;-70
2021/09/20 09:30:30;;;;;;;22.75;11.38;;;;;;;17.71;100.00;102002.44;5184778;28;20036;-71
2021/09/20 09:33:11;;;;;;;16.98;10.82;;;;;;;18.05;100.00;102010.09;5185708;28;20475;-71
2021/09/20 09:35:44;;;;;;;25.38;12.60;;;;;;;18.38;100.00;102003.22;5198452;28;20029;-71
2021/09/20 09:38:16;;;;;;;19.70;11.35;;;;;;;18.76;100.00;102003.06;5184927;28;20364;-71
2021/09/20 09:40:55;;;;;;;23.40;12.15;;;;;;;18.98;100.00;102008.53;5198397;28;20026;-71
2021/09/20 09:43:35;;;;;;;24.77;11.82;;;;;;;19.20;100.00;102003.94;5193379;28;20116;-71
2021/09/20 09:46:23;;;;;;;19.60;10.88;;;;;;;19.70;100.00;102011.06;5194837;28;20307;-71
2021/09/20 09:48:56;;;;;;;16.13;11.05;;;;;;;20.10;100.00;102016.78;5210750;28;21353;-72
2021/09/20 09:51:26;;;;;;;16.85;10.40;;;;;;;20.57;100.00;102004.22;5198827;28;20111;-71
2021/09/20 09:54:08;;;;;;;21.40;10.77;;;;;;;20.05;100.00;102006.50;5211351;28;20032;-72
2021/09/20 09:56:38;;;;;;;21.13;10.70;;;;;;;19.85;100.00;102002.81;5208586;28;20090;-72
2021/09/20 09:59:08;;;;;;;18.30;10.57;;;;;;;20.48;100.00;102002.72;5201702;28;20022;-72
2021/09/20 10:01:40;;;;;;;15.93;9.85;;;;;;;20.51;100.00;102002.34;5210485;28;20032;-72
2021/09/20 10:04:16;;;;;;;24.60;11.15;;;;;;;20.77;100.00;102001.56;5219136;28;20081;-71
2021/09/20 10:06:49;;;;;;;17.60;11.38;;;;;;;20.60;100.00;102009.28;5205943;28;20445;-72
2021/09/20 10:09:24;;;;;;;20.60;10.85;;;;;;;20.59;100.00;102003.00;5205020;28;20378;-72
2021/09/20 10:11:57;;;;;;;16.35;10.30;;;;;;;20.64;100.00;102007.84;5216714;28;20025;-72
2021/09/20 10:14:28;;;;;;;16.77;10.10;;;;;;;20.88;100.00;102004.56;5189782;28;20120;-72
2021/09/20 10:16:59;;;;;;;16.00;10.40;;;;;;;20.36;100.00;102005.16;5202029;28;20434;-72
2021/09/20 10:19:30;;;;;;;18.98;11.10;;;;;;;19.88;100.00;102008.69;5198005;28;20026;-72
2021/09/20 10:22:01;;;;;;;15.38;10.13;;;;;;;19.72;100.00;102006.25;5210973;28;20029;-72
2021/09/20 10:24:31;;;;;;;20.13;11.00;;;;;;;19.31;100.00;101998.78;5209559;28;20021;-72
2021/09/20 10:27:02;;;;;;;19.67;9.85;;;;;;;19.39;100.00;101998.66;5205103;28;20025;-72
2021/09/20 10:29:32;;;;;;;18.45;10.65;;;;;;;19.30;100.00;102009.88;5217971;28;20025;-72
2021/09/20 10:32:04;;;;;;;22.33;11.73;;;;;;;18.73;100.00;102014.34;5205549;28;20048;-72
2021/09/20 10:34:34;;;;;;;18.35;11.15;;;;;;;18.86;100.00;102002.75;5204334;28;20096;-71
2021/09/20 10:37:09;;;;;;;22.98;11.40;;;;;;;18.85;100.00;102001.91;5209586;28;20613;-71
2021/09/20 10:40:00;;;;;;;19.25;10.23;;;;;;;18.98;100.00;102001.22;5210718;28;20457;-72
2021/09/20 10:42:47;;;;;;;18.80;10.32;;;;;;;18.97;100.00;101991.34;5213259;28;20074;-72
2021/09/20 10:45:35;;;;;;;16.35;10.07;;;;;;;18.87;100.00;101996.28;5210431;28;20398;-72
2021/09/20 10:48:15;;;;;;;17.48;11.27;;;;;;;18.67;100.00;101997.91;5209767;28;20029;-73
2021/09/20 10:50:50;;;;;;;19.52;11.40;;;;;;;18.97;100.00;101998.69;5222694;28;20437;-72
2021/09/20 10:53:32;;;;;;;20.75;11.27;;;;;;;19.37;100.00;101986.28;5214965;28;20021;-72
2021/09/20 10:56:02;;;;;;;19.35;11.57;;;;;;;19.61;100.00;101993.22;5215787;28;20020;-72
2021/09/20 10:58:36;;;;;;;20.40;11.13;;;;;;;19.90;100.00;101995.72;5202926;28;20386;-72
2021/09/20 11:01:11;;;;;;;17.88;9.90;;;;;;;20.11;100.00;101997.50;5207460;28;20051;-72
2021/09/20 11:03:43;;;;;;;21.30;11.87;;;;;;;20.15;100.00;101995.22;5223515;28;20160;-72
2021/09/20 11:06:31;;;;;;;20.65;11.73;;;;;;;19.87;100.00;101997.97;5202158;28;20326;-72
2021/09/20 11:09:08;;;;;;;19.40;11.55;;;;;;;19.80;100.00;102000.69;5215433;28;20033;-72
2021/09/20 11:11:39;;;;;;;19.90;11.40;;;;;;;19.96;100.00;102002.25;5213887;28;20386;-72
2021/09/20 11:14:17;;;;;;;20.17;11.23;;;;;;;19.74;100.00;101997.91;5202848;28;20036;-72
2021/09/20 11:16:55;;;;;;;20.38;12.15;;;;;;;19.76;100.00;101990.38;5201753;28;20021;-72
2021/09/20 11:19:26;;;;;;;20.90;11.88;;;;;;;19.64;100.00;101999.09;5211169;28;20059;-72
2021/09/20 11:22:03;;;;;;;19.40;12.32;;;;;;;19.86;100.00;102001.75;5208711;28;20029;-72